Time;durP1;ratioP1;P1;durP2;ratioP2;P2;SDS_P1;SDS_P2;PMS_P1;PMS_P2;Temp;Humidity;BMP_temperature;BMP_pressure;BME280_temperature;BME280_humidity;BME280_pressure;Samples;Min_cycle;Max_cycle;Signal;HPM_P1;HPM_P2
2023/06/23 00:01:03;;;;;;;11.30;9.23;;;21.60;90.00;;;;;;5017678;28;20014;-83
2023/06/23 00:03:32;;;;;;;10.15;8.75;;;21.60;90.00;;;;;;4997317;28;20030;-83
2023/06/23 00:05:57;;;;;;;10.32;8.73;;;21.60;89.90;;;;;;5014832;28;20104;-83
2023/06/23 00:08:23;;;;;;;11.32;9.10;;;21.70;89.80;;;;;;4997424;28;20057;-83
2023/06/23 00:10:49;;;;;;;11.70;9.15;;;21.70;89.70;;;;;;5006641;28;20478;-83
2023/06/23 00:13:15;;;;;;;10.32;8.77;;;21.70;89.60;;;;;;4997410;28;20034;-83
2023/06/23 00:15:41;;;;;;;11.65;9.43;;;21.70;89.50;;;;;;4997162;28;20030;-83
2023/06/23 00:18:06;;;;;;;11.35;9.10;;;21.70;89.40;;;;;;4997157;28;20121;-83
2023/06/23 00:20:32;;;;;;;10.38;8.70;;;21.80;89.40;;;;;;5005942;28;20025;-83
2023/06/23 00:22:57;;;;;;;9.85;8.68;;;21.80;89.30;;;;;;5018769;28;20022;-83
2023/06/23 00:25:23;;;;;;;10.10;8.60;;;21.80;89.30;;;;;;5021590;28;20033;-83
2023/06/23 00:27:49;;;;;;;9.48;8.38;;;21.70;89.20;;;;;;5036360;28;20120;-84
2023/06/23 00:30:14;;;;;;;9.95;8.57;;;21.70;89.20;;;;;;5021370;28;20107;-83
2023/06/23 00:32:41;;;;;;;11.48;9.07;;;21.80;89.30;;;;;;5006682;28;20491;-83
2023/06/23 00:35:08;;;;;;;11.07;9.50;;;21.80;89.40;;;;;;5014598;28;20056;-83
2023/06/23 00:37:37;;;;;;;10.25;9.15;;;21.70;89.50;;;;;;5003453;28;20032;-83
2023/06/23 00:40:03;;;;;;;11.00;9.68;;;21.70;89.60;;;;;;5029092;28;20414;-83
2023/06/23 00:42:29;;;;;;;10.38;8.77;;;21.60;89.60;;;;;;5013729;28;20091;-83
2023/06/23 00:44:54;;;;;;;11.95;9.50;;;21.70;89.70;;;;;;4996818;28;20545;-84
2023/06/23 00:47:20;;;;;;;11.27;9.52;;;21.60;89.70;;;;;;4996984;28;20029;-84
2023/06/23 00:49:46;;;;;;;11.32;9.05;;;21.60;89.70;;;;;;5000394;28;20017;-83
2023/06/23 00:52:11;;;;;;;11.52;8.93;;;21.60;89.70;;;;;;5030842;28;20033;-84
2023/06/23 00:54:37;;;;;;;11.00;8.88;;;21.70;89.70;;;;;;4999270;28;20072;-84
2023/06/23 00:57:03;;;;;;;9.95;8.55;;;21.60;89.70;;;;;;5015982;28;20030;-84
2023/06/23 00:59:29;;;;;;;9.98;8.50;;;21.60;89.70;;;;;;5015416;28;20033;-84
2023/06/23 01:01:59;;;;;;;9.27;8.07;;;21.60;89.50;;;;;;4996455;28;20399;-83
2023/06/23 01:04:32;;;;;;;11.45;8.82;;;21.60;89.50;;;;;;5041259;28;20090;-84
2023/06/23 01:07:16;;;;;;;11.68;8.27;;;21.60;89.40;;;;;;5035888;28;20029;-83
2023/06/23 01:10:08;;;;;;;9.95;7.68;;;21.60;89.20;;;;;;5050702;28;20025;-83
2023/06/23 01:12:42;;;;;;;10.10;7.88;;;21.60;89.10;;;;;;4996557;28;20088;-83
2023/06/23 01:15:17;;;;;;;10.00;7.65;;;21.60;89.20;;;;;;5012734;28;20076;-84
2023/06/23 01:17:45;;;;;;;9.10;7.28;;;21.60;89.10;;;;;;5016298;28;20022;-83
2023/06/23 01:20:21;;;;;;;8.85;7.38;;;21.60;89.10;;;;;;5032291;28;20021;-84
2023/06/23 01:23:20;;;;;;;9.32;7.05;;;21.60;89.00;;;;;;5032110;28;20021;-84
2023/06/23 01:26:07;;;;;;;11.23;7.95;;;21.60;89.00;;;;;;5010836;28;20022;-84
2023/06/23 01:28:49;;;;;;;8.82;7.18;;;21.60;88.90;;;;;;5012415;28;20125;-84
2023/06/23 01:31:44;;;;;;;8.45;6.80;;;21.60;88.80;;;;;;5038268;28;20403;-84
2023/06/23 01:34:17;;;;;;;9.55;7.20;;;21.60;88.70;;;;;;5050481;28;20021;-83
2023/06/23 01:36:49;;;;;;;8.13;6.53;;;21.70;88.60;;;;;;5035273;28;20043;-83
2023/06/23 01:39:17;;;;;;;8.38;6.45;;;21.70;88.50;;;;;;5053165;28;20075;-84
2023/06/23 01:41:58;;;;;;;9.40;6.70;;;21.70;88.40;;;;;;5015145;28;20132;-84
2023/06/23 01:44:24;;;;;;;8.15;6.32;;;21.70;88.20;;;;;;5015458;28;20025;-84
2023/06/23 01:46:55;;;;;;;8.05;6.05;;;21.70;88.10;;;;;;5015109;28;20034;-84
2023/06/23 01:49:28;;;;;;;9.17;6.13;;;21.70;88.10;;;;;;5015605;28;20112;-84
2023/06/23 01:51:54;;;;;;;7.38;5.75;;;21.70;88.00;;;;;;5010525;28;20171;-84
2023/06/23 01:54:21;;;;;;;7.88;5.53;;;21.70;88.00;;;;;;5012002;28;20033;-84
2023/06/23 01:56:48;;;;;;;7.60;5.25;;;21.70;87.90;;;;;;5026044;28;20542;-84
2023/06/23 01:59:15;;;;;;;6.68;4.68;;;21.70;87.90;;;;;;5032955;28;20167;-84
2023/06/23 02:01:43;;;;;;;7.25;4.80;;;21.60;87.90;;;;;;5019563;28;20129;-83
2023/06/23 02:04:10;;;;;;;6.97;4.82;;;21.60;88.00;;;;;;4995708;28;20038;-83
2023/06/23 02:06:38;;;;;;;7.78;5.00;;;21.60;88.10;;;;;;5011516;28;20034;-83
2023/06/23 02:09:09;;;;;;;7.18;4.88;;;21.60;88.10;;;;;;5012819;28;20521;-84
2023/06/23 02:11:36;;;;;;;7.40;4.60;;;21.60;88.20;;;;;;5009360;28;20034;-83
2023/06/23 02:14:02;;;;;;;7.80;4.40;;;21.60;88.20;;;;;;5011548;28;20283;-84
2023/06/23 02:16:30;;;;;;;7.45;4.70;;;21.60;88.20;;;;;;4995080;28;20064;-84
2023/06/23 02:18:57;;;;;;;6.70;4.07;;;21.60;88.20;;;;;;4995412;28;20094;-84
2023/06/23 02:21:23;;;;;;;7.55;4.20;;;21.50;88.10;;;;;;5023460;28;20560;-84
2023/06/23 02:23:50;;;;;;;6.72;4.40;;;21.50;88.00;;;;;;5020583;28;20108;-84
2023/06/23 02:26:16;;;;;;;5.10;3.42;;;21.50;88.00;;;;;;5011216;28;20477;-84
2023/06/23 02:28:49;;;;;;;6.63;4.45;;;21.50;87.80;;;;;;5040668;28;20040;-84
2023/06/23 02:31:17;;;;;;;6.10;4.25;;;21.50;87.80;;;;;;5025478;28;20388;-83
2023/06/23 02:33:43;;;;;;;5.97;3.50;;;21.50;87.70;;;;;;5042880;28;20551;-84
2023/06/23 02:36:10;;;;;;;5.47;3.47;;;21.50;87.60;;;;;;5032427;28;20030;-84
2023/06/23 02:38:36;;;;;;;7.05;3.47;;;21.50;87.50;;;;;;5014797;28;20060;-85
2023/06/23 02:41:06;;;;;;;6.82;3.55;;;21.50;87.30;;;;;;5014387;28;20037;-82
2023/06/23 02:43:41;;;;;;;6.10;3.95;;;21.50;87.30;;;;;;5015985;28;20120;-82
2023/06/23 02:46:11;;;;;;;7.80;3.55;;;21.50;87.20;;;;;;5036494;28;20055;-82
2023/06/23 02:48:39;;;;;;;5.68;3.22;;;21.50;87.20;;;;;;5038472;28;20485;-82
2023/06/23 02:51:09;;;;;;;5.28;3.10;;;21.50;87.10;;;;;;5027286;28;20034;-81
2023/06/23 02:53:41;;;;;;;5.95;4.00;;;21.50;87.30;;;;;;5013112;28;20021;-82
2023/06/23 02:56:13;;;;;;;6.45;3.47;;;21.50;87.10;;;;;;5018813;28;20033;-83
2023/06/23 02:58:39;;;;;;;6.28;3.42;;;21.50;87.10;;;;;;5006482;28;20056;-82
2023/06/23 03:01:06;;;;;;;5.47;3.22;;;21.60;87.00;;;;;;5028562;28;20057;-82
2023/06/23 03:03:33;;;;;;;5.63;3.47;;;21.60;86.90;;;;;;5017468;28;20394;-83
2023/06/23 03:05:59;;;;;;;5.65;3.05;;;21.60;86.80;;;;;;5017983;28;20492;-82
2023/06/23 03:08:25;;;;;;;4.95;2.95;;;21.60;86.70;;;;;;5009740;28;20122;-83
2023/06/23 03:10:51;;;;;;;4.80;3.20;;;21.60;86.70;;;;;;5023076;28;20116;-83
2023/06/23 03:13:16;;;;;;;5.38;3.13;;;21.60;86.60;;;;;;4998340;28;20034;-83
2023/06/23 03:15:42;;;;;;;5.15;2.95;;;21.60;86.50;;;;;;4998131;28;20093;-83
2023/06/23 03:18:15;;;;;;;5.75;3.10;;;21.60;86.40;;;;;;5001697;28;20030;-83
2023/06/23 03:20:49;;;;;;;5.75;3.22;;;21.60;86.90;;;;;;5011638;28;20022;-83
2023/06/23 03:23:17;;;;;;;5.95;3.40;;;21.60;86.40;;;;;;5005738;28;20501;-82
2023/06/23 03:25:47;;;;;;;5.88;3.53;;;21.60;86.10;;;;;;5037435;28;20044;-83
2023/06/23 03:28:25;;;;;;;6.18;3.35;;;21.60;86.40;;;;;;5033859;28;20035;-83
2023/06/23 03:31:07;;;;;;;5.55;3.22;;;21.50;86.40;;;;;;5003423;28;20033;-85
2023/06/23 03:33:44;;;;;;;5.63;3.33;;;21.50;86.40;;;;;;5035059;28;20136;-85
2023/06/23 03:37:06;;;;;;;;;;;;;;;;;;;;;
2023/06/23 03:40:43;;;;;;;;;;;;;;;;;;;;;
2023/06/23 03:44:09;;;;;;;;;;;;;;;;;;;;;
2023/06/23 04:27:20;;;;;;;;;;;;;;;;;;;;;
2023/06/23 04:30:14;;;;;;;6.57;3.50;;;21.60;86.10;;;;;;4981797;28;20040;-86
2023/06/23 04:32:41;;;;;;;5.43;3.40;;;21.50;86.00;;;;;;4928118;29;20505;-84
2023/06/23 04:42:53;;;;;;;6.90;3.38;;;21.70;85.90;;;;;;4852869;29;20088;-84
2023/06/23 04:46:01;;;;;;;6.35;3.53;;;21.70;85.90;;;;;;4854121;29;20060;-83
2023/06/23 04:49:12;;;;;;;5.97;3.60;;;22.60;86.40;;;;;;4917307;29;20054;-84
2023/06/23 04:52:26;;;;;;;9.02;4.22;;;21.50;85.80;;;;;;4932845;29;20063;-84
2023/06/23 04:55:44;;;;;;;;;;;;;;;;;;;;;
2023/06/23 04:58:59;;;;;;;8.25;3.65;;;21.40;85.70;;;;;;4871011;28;20120;-84
2023/06/23 05:02:13;;;;;;;8.35;4.13;;;21.30;85.80;;;;;;4949811;29;20039;-84
2023/06/23 05:04:59;;;;;;;7.32;3.90;;;21.40;86.00;;;;;;4924742;29;20504;-85
2023/06/23 05:08:19;;;;;;;7.45;4.20;;;21.40;86.00;;;;;;4949968;28;20039;-84
2023/06/23 05:11:06;;;;;;;7.82;4.05;;;21.50;86.20;;;;;;4934726;29;20132;-84
2023/06/23 05:20:27;;;;;;;6.20;3.92;;;21.40;86.10;;;;;;4950752;29;20054;-84
2023/06/23 05:22:55;;;;;;;7.40;3.97;;;21.60;86.10;;;;;;4953897;28;20128;-85
2023/06/23 05:25:25;;;;;;;9.00;4.47;;;21.40;85.90;;;;;;4956218;28;20045;-85
2023/06/23 05:27:57;;;;;;;7.50;4.00;;;21.30;85.80;;;;;;4996041;28;20026;-85
2023/06/23 05:30:24;;;;;;;9.88;4.72;;;21.30;85.80;;;;;;4996010;28;20018;-85
2023/06/23 05:32:52;;;;;;;6.88;4.18;;;21.40;85.90;;;;;;4996594;28;20104;-85
2023/06/23 05:35:18;;;;;;;6.85;4.10;;;21.40;85.80;;;;;;4983484;28;20022;-85
2023/06/23 05:37:46;;;;;;;6.38;3.70;;;21.30;85.70;;;;;;4976268;28;20030;-85
2023/06/23 05:40:13;;;;;;;7.45;3.60;;;21.30;85.70;;;;;;4982558;28;20515;-85
2023/06/23 05:42:40;;;;;;;6.45;3.80;;;21.30;85.70;;;;;;4995740;28;20125;-85
2023/06/23 05:45:06;;;;;;;5.90;3.53;;;21.30;85.70;;;;;;4995747;28;20022;-85
2023/06/23 05:47:56;;;;;;;6.32;3.40;;;21.30;85.70;;;;;;4995431;28;20025;-85
2023/06/23 05:50:26;;;;;;;6.32;3.53;;;21.30;85.70;;;;;;5028493;22;20030;-88
2023/06/23 05:52:57;;;;;;;7.43;3.67;;;21.40;85.70;;;;;;5036659;28;20102;-88
2023/06/23 05:55:24;;;;;;;;;;;21.40;85.70;;;;;;5040897;28;20486;-87
2023/06/23 05:57:56;;;;;;;6.07;3.30;;;21.40;85.60;;;;;;5075192;28;19904;-88
2023/06/23 06:00:24;;;;;;;6.45;3.53;;;21.40;85.50;;;;;;5052858;28;20260;-88
2023/06/23 06:02:51;;;;;;;6.85;3.70;;;21.40;85.40;;;;;;5023535;28;20033;-88
2023/06/23 06:05:19;;;;;;;6.72;3.35;;;21.50;85.40;;;;;;5018860;28;20025;-88
2023/06/23 06:07:46;;;;;;;6.50;3.38;;;21.50;85.30;;;;;;5035740;28;20025;-87
2023/06/23 06:10:13;;;;;;;5.32;3.10;;;21.50;85.30;;;;;;5038944;28;20029;-88
2023/06/23 06:12:40;;;;;;;5.38;3.15;;;21.50;85.20;;;;;;5032361;28;20030;-88
2023/06/23 06:15:07;;;;;;;7.53;3.53;;;21.50;85.20;;;;;;5052097;28;20028;-88
2023/06/23 06:17:34;;;;;;;5.85;3.30;;;21.50;85.10;;;;;;5055736;28;20025;-88
2023/06/23 06:20:04;;;;;;;5.65;3.38;;;21.50;85.10;;;;;;5040692;28;20021;-88
2023/06/23 06:22:35;;;;;;;5.20;3.25;;;21.40;85.10;;;;;;5023324;28;20030;-88
2023/06/23 06:25:03;;;;;;;6.22;3.33;;;21.40;85.10;;;;;;5038644;28;20049;-88
2023/06/23 06:27:32;;;;;;;6.25;3.10;;;21.40;85.30;;;;;;5029313;28;20037;-87
2023/06/23 06:29:58;;;;;;;6.18;3.65;;;21.40;85.40;;;;;;5022087;28;20047;-88
2023/06/23 06:32:29;;;;;;;6.68;3.75;;;21.40;85.40;;;;;;5021441;28;20416;-88
2023/06/23 06:34:57;;;;;;;5.95;3.80;;;21.30;85.40;;;;;;5039523;28;20022;-87
2023/06/23 06:37:25;;;;;;;6.45;3.85;;;21.30;85.40;;;;;;5038324;28;20478;-88
2023/06/23 06:39:51;;;;;;;6.25;3.20;;;21.40;85.50;;;;;;5039305;28;20633;-88
2023/06/23 06:42:16;;;;;;;5.38;3.17;;;21.30;85.40;;;;;;5057729;28;20016;-87
2023/06/23 06:44:42;;;;;;;5.90;3.05;;;21.30;85.40;;;;;;5054882;28;20025;-89
2023/06/23 06:47:10;;;;;;;7.43;3.72;;;21.30;85.40;;;;;;5052599;28;20031;-89
2023/06/23 06:49:36;;;;;;;5.53;3.00;;;21.30;85.40;;;;;;5051372;28;20032;-88
2023/06/23 06:52:03;;;;;;;6.53;3.40;;;21.30;85.40;;;;;;5046702;28;20041;-88
2023/06/23 06:54:28;;;;;;;5.95;3.28;;;21.30;85.40;;;;;;5063970;28;20480;-89
2023/06/23 06:56:55;;;;;;;5.93;3.53;;;21.30;85.40;;;;;;5051157;28;20017;-89
2023/06/23 06:59:21;;;;;;;6.72;3.47;;;21.30;85.40;;;;;;5062178;28;20025;-89
2023/06/23 07:01:47;;;;;;;5.40;3.10;;;21.30;85.40;;;;;;5052810;28;20125;-88
2023/06/23 07:04:14;;;;;;;6.22;3.70;;;21.30;85.30;;;;;;5052086;28;20060;-88
2023/06/23 07:06:40;;;;;;;5.82;3.40;;;21.30;85.30;;;;;;5081607;28;20055;-88
2023/06/23 07:09:06;;;;;;;5.90;3.20;;;21.30;85.30;;;;;;5068120;28;20021;-88
2023/06/23 07:11:31;;;;;;;5.70;3.63;;;21.30;85.40;;;;;;5067946;28;20036;-88
2023/06/23 07:13:58;;;;;;;6.25;3.40;;;21.30;85.30;;;;;;5060148;28;20027;-89
2023/06/23 07:16:24;;;;;;;5.38;3.17;;;21.30;85.30;;;;;;5052356;28;20388;-88
2023/06/23 07:18:50;;;;;;;5.75;3.22;;;21.30;85.40;;;;;;5068738;28;20031;-88
2023/06/23 07:21:15;;;;;;;5.60;3.20;;;21.30;85.30;;;;;;5050562;28;20413;-88
2023/06/23 07:23:41;;;;;;;6.47;3.45;;;21.30;85.20;;;;;;5072814;28;20032;-88
2023/06/23 07:26:06;;;;;;;6.75;3.83;;;21.40;85.20;;;;;;5052118;28;20132;-88
2023/06/23 07:28:32;;;;;;;5.82;3.58;;;21.40;85.20;;;;;;5047043;28;20493;-88
2023/06/23 07:30:57;;;;;;;7.13;3.67;;;21.40;85.20;;;;;;5042112;28;20029;-88
2023/06/23 07:33:22;;;;;;;5.50;3.17;;;21.40;85.10;;;;;;5076106;28;20032;-88
2023/06/23 07:35:48;;;;;;;5.55;3.28;;;21.40;85.00;;;;;;5074129;28;20025;-89
2023/06/23 07:38:14;;;;;;;5.32;2.90;;;21.50;85.00;;;;;;5059641;28;20024;-89
2023/06/23 07:40:39;;;;;;;6.50;3.25;;;21.50;85.00;;;;;;5060040;28;20025;-88
2023/06/23 07:43:05;;;;;;;5.63;3.30;;;21.50;84.90;;;;;;5062566;28;20100;-89
2023/06/23 07:45:30;;;;;;;6.28;3.45;;;21.50;84.90;;;;;;5065618;28;20024;-89
2023/06/23 07:47:56;;;;;;;5.70;3.25;;;21.40;84.90;;;;;;5047097;28;20025;-88
2023/06/23 07:50:21;;;;;;;6.65;3.58;;;21.40;84.90;;;;;;5046392;28;20041;-88
2023/06/23 07:52:54;;;;;;;5.72;3.45;;;21.40;85.00;;;;;;5046463;28;20020;-88
2023/06/23 07:55:20;;;;;;;6.10;3.45;;;21.30;85.00;;;;;;5046068;28;20025;-88
2023/06/23 07:57:46;;;;;;;6.00;3.53;;;21.40;85.20;;;;;;5061328;28;20020;-89
2023/06/23 08:00:12;;;;;;;5.40;3.30;;;21.30;85.20;;;;;;5070649;28;20025;-88
2023/06/23 08:02:38;;;;;;;5.50;3.22;;;21.40;85.30;;;;;;5053469;28;20139;-88
2023/06/23 08:05:04;;;;;;;6.68;3.75;;;21.30;85.40;;;;;;5024903;28;20053;-88
2023/06/23 08:07:29;;;;;;;5.70;3.30;;;21.30;85.40;;;;;;5023859;28;20026;-88
2023/06/23 08:09:54;;;;;;;6.10;3.50;;;21.30;85.40;;;;;;5043050;28;20359;-88
2023/06/23 08:12:20;;;;;;;5.50;3.20;;;21.30;86.00;;;;;;5038126;28;20440;-88
2023/06/23 08:14:45;;;;;;;6.15;3.53;;;21.30;85.50;;;;;;5023891;28;20063;-88
2023/06/23 08:17:11;;;;;;;6.63;3.50;;;21.30;85.50;;;;;;5060747;28;20029;-88
2023/06/23 08:19:37;;;;;;;6.15;3.72;;;21.30;85.50;;;;;;5057393;28;20024;-88
2023/06/23 08:22:03;;;;;;;6.22;3.42;;;21.30;85.50;;;;;;5045564;28;20095;-88
2023/06/23 08:24:29;;;;;;;6.53;3.75;;;21.30;85.50;;;;;;5042469;28;20025;-88
2023/06/23 08:26:54;;;;;;;6.32;3.50;;;21.30;85.50;;;;;;5055322;28;20028;-87
2023/06/23 08:29:20;;;;;;;5.97;3.50;;;21.30;85.60;;;;;;5067827;28;20033;-88
2023/06/23 08:31:45;;;;;;;6.63;3.80;;;21.30;85.50;;;;;;5059103;28;20029;-88
2023/06/23 08:34:11;;;;;;;6.93;3.40;;;21.30;85.50;;;;;;5055920;28;20079;-87
2023/06/23 08:36:36;;;;;;;5.75;3.58;;;21.30;85.60;;;;;;5046073;28;20040;-87
2023/06/23 08:39:02;;;;;;;6.85;3.63;;;21.30;85.50;;;;;;5058780;28;20421;-88
2023/06/23 08:41:31;;;;;;;6.05;3.67;;;21.30;85.60;;;;;;5036947;28;20394;-88
2023/06/23 08:44:01;;;;;;;5.32;3.22;;;21.30;85.50;;;;;;5036915;28;20028;-88
2023/06/23 08:46:30;;;;;;;6.68;3.60;;;21.30;85.50;;;;;;5037778;28;20394;-88
2023/06/23 08:48:59;;;;;;;6.43;3.67;;;21.30;85.40;;;;;;5038566;28;20032;-88
2023/06/23 08:51:25;;;;;;;6.40;3.50;;;21.30;85.40;;;;;;5039205;28;20041;-88
2023/06/23 08:53:51;;;;;;;5.45;3.10;;;21.40;85.30;;;;;;5046372;28;20029;-88
2023/06/23 08:56:16;;;;;;;6.68;3.60;;;21.40;85.20;;;;;;5056619;28;20039;-88
2023/06/23 08:58:42;;;;;;;6.72;3.75;;;21.40;85.20;;;;;;5038508;28;20020;-88
2023/06/23 09:01:07;;;;;;;6.78;3.80;;;21.40;85.10;;;;;;5024514;28;20025;-88
2023/06/23 09:03:34;;;;;;;6.88;4.15;;;21.40;85.00;;;;;;5022016;28;20028;-88
2023/06/23 09:06:00;;;;;;;7.32;3.97;;;21.50;85.10;;;;;;5023424;28;20026;-88
2023/06/23 09:08:26;;;;;;;6.45;3.90;;;21.50;85.00;;;;;;5042078;28;20028;-88
2023/06/23 09:10:52;;;;;;;8.18;3.70;;;21.40;84.90;;;;;;5050449;28;20025;-88
2023/06/23 09:13:19;;;;;;;6.60;3.97;;;21.50;85.00;;;;;;5049110;28;20060;-88
2023/06/23 09:15:46;;;;;;;6.28;3.65;;;21.40;84.90;;;;;;5075527;28;20016;-88
2023/06/23 09:18:13;;;;;;;6.30;3.88;;;21.40;85.00;;;;;;5037400;28;20027;-87
2023/06/23 09:20:42;;;;;;;6.55;3.72;;;21.40;85.10;;;;;;5037135;28;20032;-87
2023/06/23 09:23:11;;;;;;;6.40;3.80;;;21.40;85.20;;;;;;5038596;28;20022;-88
2023/06/23 09:25:45;;;;;;;6.57;3.90;;;21.40;85.30;;;;;;5018961;28;20597;-87
2023/06/23 09:28:26;;;;;;;7.18;3.85;;;21.40;85.40;;;;;;5044992;28;20542;-88
2023/06/23 09:30:53;;;;;;;5.78;3.47;;;21.40;85.40;;;;;;5029322;28;20061;-88
2023/06/23 09:33:20;;;;;;;6.25;3.67;;;21.30;85.50;;;;;;5022097;28;20398;-87
2023/06/23 09:35:52;;;;;;;7.70;4.18;;;21.30;85.50;;;;;;5036439;28;20036;-88
2023/06/23 09:38:27;;;;;;;6.65;4.18;;;21.30;85.50;;;;;;5054266;28;20028;-88
2023/06/23 09:41:14;;;;;;;6.68;3.90;;;21.30;85.60;;;;;;5034876;28;20032;-88
2023/06/23 09:43:42;;;;;;;7.45;4.15;;;21.30;85.60;;;;;;5058977;28;20021;-87
2023/06/23 09:46:08;;;;;;;9.35;4.40;;;21.30;85.60;;;;;;5073899;28;20104;-88
2023/06/23 09:48:34;;;;;;;7.65;4.30;;;21.30;85.60;;;;;;5073740;28;20032;-88
2023/06/23 09:51:01;;;;;;;6.35;3.88;;;21.30;85.60;;;;;;5043861;28;20158;-87
2023/06/23 09:53:34;;;;;;;7.82;4.63;;;21.30;85.70;;;;;;5038366;28;20025;-88
2023/06/23 09:56:01;;;;;;;6.93;4.10;;;21.30;85.70;;;;;;5032198;28;20022;-88
2023/06/23 09:58:37;;;;;;;7.68;4.15;;;21.30;85.70;;;;;;5054951;28;20021;-88
2023/06/23 10:01:05;;;;;;;6.55;4.03;;;21.30;85.70;;;;;;5043293;28;20029;-87
2023/06/23 10:03:31;;;;;;;7.38;4.45;;;21.30;86.30;;;;;;5021872;28;20507;-88
2023/06/23 10:05:58;;;;;;;7.15;4.10;;;21.30;85.70;;;;;;5040131;28;20032;-87
2023/06/23 10:08:27;;;;;;;5.85;3.85;;;21.30;85.80;;;;;;5053468;28;20024;-88
2023/06/23 10:10:53;;;;;;;6.88;4.18;;;21.30;85.80;;;;;;5064167;28;20084;-89
2023/06/23 10:13:21;;;;;;;6.40;3.80;;;21.30;85.90;;;;;;5072302;28;20385;-88
2023/06/23 10:15:46;;;;;;;7.32;4.43;;;21.30;85.80;;;;;;5045753;28;20542;-88
2023/06/23 10:18:13;;;;;;;6.68;3.95;;;21.30;85.70;;;;;;5045015;28;20088;-88
2023/06/23 10:20:39;;;;;;;6.32;4.03;;;21.30;85.60;;;;;;5064028;28;20048;-88
2023/06/23 10:23:06;;;;;;;6.63;3.88;;;21.40;85.60;;;;;;5051806;28;20090;-88
2023/06/23 10:25:35;;;;;;;6.65;4.10;;;21.40;85.50;;;;;;5050370;28;20029;-88
2023/06/23 10:28:07;;;;;;;7.20;4.07;;;21.40;85.40;;;;;;5050336;28;20519;-89
2023/06/23 10:30:32;;;;;;;;;;;21.40;85.30;;;;;;5074188;28;20026;-87
2023/06/23 10:32:59;;;;;;;7.07;4.22;;;21.40;85.20;;;;;;5066986;28;19911;-87
2023/06/23 10:35:25;;;;;;;6.68;4.10;;;21.40;85.20;;;;;;5075388;28;20114;-89
2023/06/23 10:38:03;;;;;;;6.38;4.05;;;21.50;85.20;;;;;;5038898;28;20024;-88
2023/06/23 10:40:37;;;;;;;6.90;4.03;;;21.40;85.10;;;;;;5022591;28;20052;-88
2023/06/23 10:43:04;;;;;;;6.63;4.10;;;21.40;85.10;;;;;;5075668;28;20078;-88
2023/06/23 10:45:31;;;;;;;6.18;3.70;;;21.40;85.20;;;;;;5061123;28;20033;-88
2023/06/23 10:47:57;;;;;;;7.30;4.20;;;21.40;85.20;;;;;;5044002;28;20028;-88
2023/06/23 10:50:23;;;;;;;6.88;4.20;;;21.40;85.30;;;;;;5058966;28;20039;-88
2023/06/23 10:52:49;;;;;;;6.35;3.88;;;21.40;85.50;;;;;;5043101;28;20033;-88
2023/06/23 10:55:34;;;;;;;7.10;4.40;;;21.40;85.60;;;;;;5049429;28;20044;-88
2023/06/23 10:58:17;;;;;;;6.00;3.72;;;21.40;85.50;;;;;;5047224;28;20079;-89
2023/06/23 11:00:59;;;;;;;6.78;4.03;;;21.40;85.40;;;;;;5054824;28;20029;-89
2023/06/23 11:03:36;;;;;;;6.43;3.95;;;21.50;85.40;;;;;;5038167;28;20032;-88
2023/06/23 11:06:09;;;;;;;6.30;3.85;;;21.50;85.90;;;;;;5064152;28;20519;-88
2023/06/23 11:08:40;;;;;;;6.22;3.97;;;21.50;85.20;;;;;;5072452;28;20029;-88
2023/06/23 11:11:10;;;;;;;6.22;3.85;;;21.50;85.20;;;;;;5051556;28;20113;-88
2023/06/23 11:13:38;;;;;;;6.38;3.92;;;21.50;85.20;;;;;;5062364;28;20056;-88
2023/06/23 11:16:04;;;;;;;6.25;3.90;;;21.50;85.20;;;;;;5046982;28;20029;-88
2023/06/23 11:18:30;;;;;;;7.05;4.03;;;21.50;85.20;;;;;;5048896;28;20065;-88
2023/06/23 11:21:15;;;;;;;6.95;4.20;;;21.50;85.10;;;;;;5049581;28;20025;-88
2023/06/23 11:24:12;;;;;;;6.22;3.70;;;21.60;85.10;;;;;;5053951;28;20028;-88
2023/06/23 11:26:50;;;;;;;6.75;4.10;;;21.60;85.10;;;;;;5065921;28;20024;-88
2023/06/23 11:29:21;;;;;;;7.40;3.88;;;21.60;85.10;;;;;;5044608;28;20459;-88
2023/06/23 11:32:11;;;;;;;5.90;3.88;;;21.60;85.00;;;;;;5041207;28;20022;-88
2023/06/23 11:35:01;;;;;;;5.47;3.65;;;21.60;85.00;;;;;;5032701;28;20029;-87
2023/06/23 11:37:29;;;;;;;6.30;4.10;;;21.60;84.90;;;;;;5062819;28;20383;-88
2023/06/23 11:39:55;;;;;;;6.85;3.50;;;21.60;84.80;;;;;;5034900;28;20022;-88
2023/06/23 11:42:22;;;;;;;6.38;3.47;;;21.60;84.80;;;;;;5031604;28;20017;-88
2023/06/23 11:44:50;;;;;;;6.35;3.83;;;21.60;84.80;;;;;;5057004;28;20394;-88
2023/06/23 11:47:24;;;;;;;6.10;3.65;;;21.70;84.70;;;;;;5042253;28;20025;-88
2023/06/23 11:49:50;;;;;;;6.13;3.95;;;21.70;84.50;;;;;;5039578;28;20070;-88
2023/06/23 11:52:16;;;;;;;7.22;4.10;;;21.70;84.40;;;;;;5044009;28;20405;-88
2023/06/23 11:54:41;;;;;;;6.95;3.78;;;21.80;84.80;;;;;;5060043;28;20035;-88
2023/06/23 11:57:08;;;;;;;5.90;3.60;;;21.80;84.10;;;;;;5043085;28;20107;-88
2023/06/23 11:59:37;;;;;;;6.38;4.00;;;21.80;84.00;;;;;;5059360;28;20029;-88
2023/06/23 12:02:03;;;;;;;6.53;3.97;;;21.80;84.00;;;;;;5042155;28;20044;-88
2023/06/23 12:04:36;;;;;;;5.97;3.70;;;21.80;83.90;;;;;;5047183;28;20089;-88
2023/06/23 12:07:03;;;;;;;6.28;3.97;;;21.80;83.90;;;;;;5058530;28;20029;-88
2023/06/23 12:09:30;;;;;;;7.50;4.15;;;21.80;83.90;;;;;;5040737;28;20378;-88
2023/06/23 12:11:56;;;;;;;6.03;3.50;;;21.80;83.90;;;;;;5036859;28;20037;-88
2023/06/23 12:14:29;;;;;;;6.70;3.95;;;21.80;84.00;;;;;;5059623;28;20062;-88
2023/06/23 12:17:07;;;;;;;6.18;3.83;;;21.80;84.00;;;;;;5043087;28;20027;-87
2023/06/23 12:19:33;;;;;;;6.20;3.97;;;21.80;84.10;;;;;;5039061;28;20535;-87
2023/06/23 12:21:59;;;;;;;6.47;4.07;;;21.70;84.20;;;;;;5043158;28;20030;-87
2023/06/23 12:24:25;;;;;;;6.32;3.95;;;21.70;84.30;;;;;;5046277;28;20029;-87
2023/06/23 12:26:51;;;;;;;6.50;4.00;;;21.80;84.40;;;;;;5066130;28;20056;-87
2023/06/23 12:29:18;;;;;;;6.03;3.90;;;21.70;84.50;;;;;;5038713;28;20028;-87
2023/06/23 12:31:55;;;;;;;6.65;4.40;;;21.70;84.40;;;;;;5038347;28;20025;-87
2023/06/23 12:34:21;;;;;;;5.70;4.03;;;21.70;84.40;;;;;;5034008;28;20030;-87
2023/06/23 12:36:48;;;;;;;6.18;3.95;;;21.70;84.40;;;;;;5038624;28;20024;-87
2023/06/23 12:39:15;;;;;;;7.32;4.40;;;21.70;84.50;;;;;;5038057;28;20075;-87
2023/06/23 12:41:41;;;;;;;6.63;4.57;;;21.70;84.40;;;;;;5056128;28;20082;-87
2023/06/23 12:44:06;;;;;;;6.35;4.43;;;21.70;84.50;;;;;;5042068;28;20092;-87
2023/06/23 12:46:32;;;;;;;6.15;4.18;;;21.70;84.60;;;;;;5017851;28;20049;-88
2023/06/23 12:48:58;;;;;;;7.28;4.28;;;21.70;84.70;;;;;;5017126;28;20474;-87
2023/06/23 12:51:37;;;;;;;6.30;4.30;;;21.60;84.60;;;;;;5028079;28;20116;-87
2023/06/23 12:54:03;;;;;;;6.70;4.43;;;21.70;84.60;;;;;;5036049;28;20055;-88
2023/06/23 12:56:29;;;;;;;6.30;4.40;;;21.70;84.70;;;;;;5028949;28;20095;-88
2023/06/23 12:58:55;;;;;;;6.85;4.50;;;21.60;84.70;;;;;;5017221;28;20025;-87
2023/06/23 13:01:20;;;;;;;6.47;4.35;;;21.70;84.70;;;;;;5016547;28;20025;-87
2023/06/23 13:03:46;;;;;;;6.82;4.97;;;21.60;84.60;;;;;;5036730;28;20536;-88
2023/06/23 13:06:12;;;;;;;6.88;4.57;;;21.70;84.70;;;;;;5036456;28;20047;-87
2023/06/23 13:08:37;;;;;;;7.35;4.97;;;21.60;84.60;;;;;;5054323;28;20021;-87
2023/06/23 13:11:03;;;;;;;6.68;4.35;;;21.70;84.60;;;;;;5034999;28;20028;-87
2023/06/23 13:13:28;;;;;;;6.10;4.28;;;21.60;84.50;;;;;;5036182;28;20481;-87
2023/06/23 13:15:54;;;;;;;7.00;4.35;;;21.70;84.50;;;;;;5036079;28;20103;-88
2023/06/23 13:18:20;;;;;;;6.63;4.47;;;21.70;84.40;;;;;;5035727;28;20478;-87
2023/06/23 13:20:46;;;;;;;6.32;4.30;;;21.70;84.30;;;;;;5035350;28;20055;-87
2023/06/23 13:23:11;;;;;;;6.18;4.32;;;21.70;84.20;;;;;;5035663;28;20029;-87
2023/06/23 13:25:37;;;;;;;6.28;4.30;;;21.80;84.10;;;;;;5034920;28;20025;-87
2023/06/23 13:28:02;;;;;;;6.07;3.97;;;21.80;84.00;;;;;;5032727;28;20165;-87
2023/06/23 13:30:28;;;;;;;7.30;4.43;;;21.80;83.90;;;;;;5019747;28;20024;-88
2023/06/23 13:32:53;;;;;;;6.13;4.10;;;21.80;83.90;;;;;;5025993;28;20030;-89
2023/06/23 13:35:19;;;;;;;7.35;4.72;;;21.80;83.80;;;;;;5064914;28;20055;-88
2023/06/23 13:37:44;;;;;;;7.20;4.80;;;21.80;83.70;;;;;;5059854;28;20092;-88
2023/06/23 13:40:12;;;;;;;6.45;4.35;;;21.80;83.70;;;;;;5081270;28;20035;-88
2023/06/23 13:42:39;;;;;;;6.47;4.40;;;21.80;83.80;;;;;;5049986;28;20052;-88
2023/06/23 13:45:06;;;;;;;6.68;4.30;;;21.80;83.80;;;;;;5044423;28;20032;-88
2023/06/23 13:47:32;;;;;;;7.30;4.70;;;21.70;83.90;;;;;;5048729;28;20085;-88
2023/06/23 13:49:57;;;;;;;6.55;4.13;;;21.70;83.90;;;;;;5072896;28;20343;-89
2023/06/23 13:52:23;;;;;;;5.97;4.25;;;21.70;84.10;;;;;;5049096;28;20095;-88
2023/06/23 13:54:49;;;;;;;6.75;4.47;;;21.70;84.10;;;;;;5062469;28;20029;-88
2023/06/23 13:57:14;;;;;;;6.15;4.00;;;21.70;84.20;;;;;;5060354;28;20043;-88
2023/06/23 13:59:42;;;;;;;7.05;4.65;;;21.60;84.10;;;;;;5056564;28;20020;-88
2023/06/23 14:02:07;;;;;;;7.03;4.50;;;21.60;84.10;;;;;;5050296;28;20037;-88
2023/06/23 14:04:33;;;;;;;6.30;4.10;;;21.70;84.30;;;;;;5061045;28;20036;-88